sensor_id;sensor_type;location;lat;lon;timestamp;pressure;altitude;pressure_sealevel;temperature;humidity
34103;BME280;20381;54.498;18.206;2022-11-12T00:00:57;100714.14;;;10.65;96.21
34103;BME280;20381;54.498;18.206;2022-11-12T00:03:24;100719.83;;;10.65;96.18
34103;BME280;20381;54.498;18.206;2022-11-12T00:05:51;100715.09;;;10.63;96.26
34103;BME280;20381;54.498;18.206;2022-11-12T00:08:18;100717.70;;;10.63;96.36
34103;BME280;20381;54.498;18.206;2022-11-12T00:10:45;100717.70;;;10.63;96.35
34103;BME280;20381;54.498;18.206;2022-11-12T00:13:12;100716.79;;;10.64;96.37
34103;BME280;20381;54.498;18.206;2022-11-12T00:15:39;100720.22;;;10.66;96.30
34103;BME280;20381;54.498;18.206;2022-11-12T00:18:06;100713.30;;;10.65;96.28
34103;BME280;20381;54.498;18.206;2022-11-12T00:20:33;100715.09;;;10.63;96.27
34103;BME280;20381;54.498;18.206;2022-11-12T00:23:00;100700.34;;;10.62;96.30
34103;BME280;20381;54.498;18.206;2022-11-12T00:25:27;100710.78;;;10.62;96.29
34103;BME280;20381;54.498;18.206;2022-11-12T00:28:07;100712.52;;;10.61;96.28
34103;BME280;20381;54.498;18.206;2022-11-12T00:30:31;100710.36;;;10.61;96.26
34103;BME280;20381;54.498;18.206;2022-11-12T00:33:02;100711.67;;;10.61;96.19
34103;BME280;20381;54.498;18.206;2022-11-12T00:35:31;100716.11;;;10.59;96.24
34103;BME280;20381;54.498;18.206;2022-11-12T00:37:58;100726.48;;;10.60;96.24
34103;BME280;20381;54.498;18.206;2022-11-12T00:40:25;100722.64;;;10.59;96.17
34103;BME280;20381;54.498;18.206;2022-11-12T00:42:52;100730.05;;;10.58;96.16
34103;BME280;20381;54.498;18.206;2022-11-12T00:45:19;100722.17;;;10.59;96.19
34103;BME280;20381;54.498;18.206;2022-11-12T00:47:46;100723.52;;;10.58;96.19
34103;BME280;20381;54.498;18.206;2022-11-12T00:50:13;100727.44;;;10.58;96.13
34103;BME280;20381;54.498;18.206;2022-11-12T00:52:40;100733.57;;;10.57;96.15
34103;BME280;20381;54.498;18.206;2022-11-12T00:55:07;100723.52;;;10.58;96.16
34103;BME280;20381;54.498;18.206;2022-11-12T00:57:34;100733.15;;;10.56;96.12
34103;BME280;20381;54.498;18.206;2022-11-12T01:00:02;100721.39;;;10.56;96.20
34103;BME280;20381;54.498;18.206;2022-11-12T01:02:30;100718.75;;;10.57;96.13
34103;BME280;20381;54.498;18.206;2022-11-12T01:04:57;100722.28;;;10.56;96.07
34103;BME280;20381;54.498;18.206;2022-11-12T01:07:24;100725.84;;;10.53;96.01
34103;BME280;20381;54.498;18.206;2022-11-12T01:09:51;100731.55;;;10.51;96.23
34103;BME280;20381;54.498;18.206;2022-11-12T01:12:17;100737.16;;;10.52;96.24
34103;BME280;20381;54.498;18.206;2022-11-12T01:14:44;100737.16;;;10.52;96.24
34103;BME280;20381;54.498;18.206;2022-11-12T01:17:11;100735.47;;;10.51;96.23
34103;BME280;20381;54.498;18.206;2022-11-12T01:19:37;100739.88;;;10.49;96.14
34103;BME280;20381;54.498;18.206;2022-11-12T01:22:04;100746.86;;;10.49;96.11
34103;BME280;20381;54.498;18.206;2022-11-12T01:24:31;100749.11;;;10.46;96.10
34103;BME280;20381;54.498;18.206;2022-11-12T01:26:58;100741.73;;;10.46;96.21
34103;BME280;20381;54.498;18.206;2022-11-12T01:29:25;100748.65;;;10.47;96.25
34103;BME280;20381;54.498;18.206;2022-11-12T01:31:51;100743.39;;;10.48;96.24
34103;BME280;20381;54.498;18.206;2022-11-12T01:34:18;100743.39;;;10.48;96.25
34103;BME280;20381;54.498;18.206;2022-11-12T01:36:45;100748.62;;;10.48;96.24
34103;BME280;20381;54.498;18.206;2022-11-12T01:39:11;100753.84;;;10.48;96.26
34103;BME280;20381;54.498;18.206;2022-11-12T01:41:40;100748.62;;;10.48;96.31
34103;BME280;20381;54.498;18.206;2022-11-12T01:44:16;100751.23;;;10.48;96.30
34103;BME280;20381;54.498;18.206;2022-11-12T01:49:43;100752.05;;;10.50;96.20
34103;BME280;20381;54.498;18.206;2022-11-12T01:52:24;100745.91;;;10.51;96.06
34103;BME280;20381;54.498;18.206;2022-11-12T01:54:53;100757.66;;;10.51;96.09
34103;BME280;20381;54.498;18.206;2022-11-12T01:57:25;100761.58;;;10.51;96.10
34103;BME280;20381;54.498;18.206;2022-11-12T01:59:57;100758.05;;;10.52;95.97
34103;BME280;20381;54.498;18.206;2022-11-12T02:02:27;100751.13;;;10.51;96.09
34103;BME280;20381;54.498;18.206;2022-11-12T02:04:54;100752.44;;;10.51;96.04
34103;BME280;20381;54.498;18.206;2022-11-12T02:07:22;100747.22;;;10.51;96.07
34103;BME280;20381;54.498;18.206;2022-11-12T02:09:51;100751.13;;;10.51;96.09
34103;BME280;20381;54.498;18.206;2022-11-12T02:12:18;100756.75;;;10.52;96.17
34103;BME280;20381;54.498;18.206;2022-11-12T02:15:03;100760.56;;;10.56;96.15
34103;BME280;20381;54.498;18.206;2022-11-12T02:17:30;100756.59;;;10.59;96.10
34103;BME280;20381;54.498;18.206;2022-11-12T02:19:59;100749.60;;;10.59;96.11
34103;BME280;20381;54.498;18.206;2022-11-12T02:22:26;100755.67;;;10.60;96.08
34103;BME280;20381;54.498;18.206;2022-11-12T02:24:53;100754.36;;;10.60;96.14
34103;BME280;20381;54.498;18.206;2022-11-12T02:27:20;100753.45;;;10.61;96.11
34103;BME280;20381;54.498;18.206;2022-11-12T02:29:48;100754.30;;;10.61;96.13
34103;BME280;20381;54.498;18.206;2022-11-12T02:32:15;100751.66;;;10.63;96.14
34103;BME280;20381;54.498;18.206;2022-11-12T02:34:41;100752.57;;;10.62;96.12
34103;BME280;20381;54.498;18.206;2022-11-12T02:37:08;100756.88;;;10.63;96.16
34103;BME280;20381;54.498;18.206;2022-11-12T02:39:34;100760.50;;;10.59;96.10
34103;BME280;20381;54.498;18.206;2022-11-12T02:42:01;100754.66;;;10.64;96.05
34103;BME280;20381;54.498;18.206;2022-11-12T02:44:29;100763.31;;;10.66;96.04
34103;BME280;20381;54.498;18.206;2022-11-12T02:46:56;100749.86;;;10.65;95.92
34103;BME280;20381;54.498;18.206;2022-11-12T02:49:22;100757.70;;;10.65;95.98
34103;BME280;20381;54.498;18.206;2022-11-12T02:51:49;100761.09;;;10.67;95.93
34103;BME280;20381;54.498;18.206;2022-11-12T02:54:16;100755.48;;;10.66;95.90
34103;BME280;20381;54.498;18.206;2022-11-12T02:56:42;100765.92;;;10.66;95.87
34103;BME280;20381;54.498;18.206;2022-11-12T02:59:09;100760.31;;;10.65;95.87
34103;BME280;20381;54.498;18.206;2022-11-12T03:01:36;100762.86;;;10.66;95.90
34103;BME280;20381;54.498;18.206;2022-11-12T03:04:03;100762.86;;;10.66;95.80
34103;BME280;20381;54.498;18.206;2022-11-12T03:06:29;100773.20;;;10.69;95.82
34103;BME280;20381;54.498;18.206;2022-11-12T03:08:56;100766.73;;;10.68;95.79
34103;BME280;20381;54.498;18.206;2022-11-12T03:11:23;100781.92;;;10.70;95.81
34103;BME280;20381;54.498;18.206;2022-11-12T03:13:50;100765.63;;;10.62;96.01
34103;BME280;20381;54.498;18.206;2022-11-12T03:16:17;100776.98;;;10.74;95.65
34103;BME280;20381;54.498;18.206;2022-11-12T03:18:43;100776.27;;;10.69;95.69
34103;BME280;20381;54.498;18.206;2022-11-12T03:21:10;100784.56;;;10.68;95.68
34103;BME280;20381;54.498;18.206;2022-11-12T03:23:38;100778.43;;;10.69;95.67
34103;BME280;20381;54.498;18.206;2022-11-12T03:26:05;100778.88;;;10.69;95.72
34103;BME280;20381;54.498;18.206;2022-11-12T03:28:32;100784.02;;;10.72;95.64
34103;BME280;20381;54.498;18.206;2022-11-12T03:30:59;100786.16;;;10.72;95.59
34103;BME280;20381;54.498;18.206;2022-11-12T03:33:27;100781.23;;;10.63;95.85
34103;BME280;20381;54.498;18.206;2022-11-12T03:35:53;100778.40;;;10.71;95.71
34103;BME280;20381;54.498;18.206;2022-11-12T03:38:20;100778.30;;;10.74;95.61
34103;BME280;20381;54.498;18.206;2022-11-12T03:40:48;100779.50;;;10.77;95.54
34103;BME280;20381;54.498;18.206;2022-11-12T03:43:14;100779.90;;;10.78;95.52
34103;BME280;20381;54.498;18.206;2022-11-12T03:45:41;100781.62;;;10.79;95.41
34103;BME280;20381;54.498;18.206;2022-11-12T03:48:07;100785.13;;;10.78;95.45
34103;BME280;20381;54.498;18.206;2022-11-12T03:50:34;100778.09;;;10.80;95.48
34103;BME280;20381;54.498;18.206;2022-11-12T03:53:01;100776.34;;;10.81;95.06
34103;BME280;20381;54.498;18.206;2022-11-12T03:55:28;100776.34;;;10.81;95.06
34103;BME280;20381;54.498;18.206;2022-11-12T03:57:55;100777.61;;;10.82;95.26
34103;BME280;20381;54.498;18.206;2022-11-12T04:00:23;100775.30;;;10.73;95.71
34103;BME280;20381;54.498;18.206;2022-11-12T04:02:50;100777.02;;;10.72;95.77
34103;BME280;20381;54.498;18.206;2022-11-12T04:05:18;100773.17;;;10.71;95.82
34103;BME280;20381;54.498;18.206;2022-11-12T04:08:17;100767.03;;;10.72;95.71
34103;BME280;20381;54.498;18.206;2022-11-12T04:11:09;100770.69;;;10.81;95.31
34103;BME280;20381;54.498;18.206;2022-11-12T04:13:41;100767.65;;;10.80;95.35
34103;BME280;20381;54.498;18.206;2022-11-12T04:19:01;100755.30;;;10.85;95.14
34103;BME280;20381;54.498;18.206;2022-11-12T04:21:51;100744.81;;;10.87;95.07
34103;BME280;20381;54.498;18.206;2022-11-12T04:24:34;100750.47;;;10.86;95.09
34103;BME280;20381;54.498;18.206;2022-11-12T04:27:26;100757.71;;;10.91;95.03
34103;BME280;20381;54.498;18.206;2022-11-12T04:29:54;100758.53;;;10.93;94.94
34103;BME280;20381;54.498;18.206;2022-11-12T04:32:50;100754.22;;;10.92;94.84
34103;BME280;20381;54.498;18.206;2022-11-12T04:35:20;100755.52;;;10.92;94.86
34103;BME280;20381;54.498;18.206;2022-11-12T04:37:48;100749.88;;;10.91;94.84
34103;BME280;20381;54.498;18.206;2022-11-12T04:40:20;100752.48;;;10.91;94.83
34103;BME280;20381;54.498;18.206;2022-11-12T04:43:08;100751.60;;;10.92;94.89
34103;BME280;20381;54.498;18.206;2022-11-12T04:45:55;100763.75;;;10.93;94.87
34103;BME280;20381;54.498;18.206;2022-11-12T04:48:22;100753.70;;;10.81;95.27
34103;BME280;20381;54.498;18.206;2022-11-12T04:50:52;100757.71;;;10.91;94.87
34103;BME280;20381;54.498;18.206;2022-11-12T04:53:19;100752.00;;;10.93;94.80
34103;BME280;20381;54.498;18.206;2022-11-12T04:55:54;100755.91;;;10.93;94.78
34103;BME280;20381;54.498;18.206;2022-11-12T04:58:21;100747.58;;;10.95;94.91
34103;BME280;20381;54.498;18.206;2022-11-12T05:00:49;100753.16;;;10.98;94.80
34103;BME280;20381;54.498;18.206;2022-11-12T05:03:16;100742.25;;;10.98;94.69
34103;BME280;20381;54.498;18.206;2022-11-12T05:05:43;100742.61;;;11.01;94.64
34103;BME280;20381;54.498;18.206;2022-11-12T05:08:10;100739.11;;;11.01;94.67
34103;BME280;20381;54.498;18.206;2022-11-12T05:10:36;100742.54;;;11.03;94.64
34103;BME280;20381;54.498;18.206;2022-11-12T05:13:03;100750.38;;;11.03;94.60
34103;BME280;20381;54.498;18.206;2022-11-12T05:15:29;100750.38;;;11.03;94.60
34103;BME280;20381;54.498;18.206;2022-11-12T05:17:56;100744.27;;;11.04;94.57
34103;BME280;20381;54.498;18.206;2022-11-12T05:20:23;100749.89;;;11.05;94.58
34103;BME280;20381;54.498;18.206;2022-11-12T05:22:50;100746.88;;;11.04;94.55
34103;BME280;20381;54.498;18.206;2022-11-12T05:25:16;100748.55;;;11.06;94.55
34103;BME280;20381;54.498;18.206;2022-11-12T05:27:43;100753.70;;;11.08;94.53
34103;BME280;20381;54.498;18.206;2022-11-12T05:30:10;100758.11;;;11.06;94.52
34103;BME280;20381;54.498;18.206;2022-11-12T05:32:37;100757.34;;;11.04;94.54
34103;BME280;20381;54.498;18.206;2022-11-12T05:35:04;100757.34;;;11.04;94.51
34103;BME280;20381;54.498;18.206;2022-11-12T05:37:31;100754.72;;;11.04;94.60
34103;BME280;20381;54.498;18.206;2022-11-12T05:39:58;100759.42;;;11.06;94.58
34103;BME280;20381;54.498;18.206;2022-11-12T05:42:25;100759.00;;;11.06;94.55
34103;BME280;20381;54.498;18.206;2022-11-12T05:44:52;100765.08;;;11.07;94.62
34103;BME280;20381;54.498;18.206;2022-11-12T05:47:19;100764.16;;;11.08;94.60
34103;BME280;20381;54.498;18.206;2022-11-12T05:49:45;100769.28;;;11.11;94.62
34103;BME280;20381;54.498;18.206;2022-11-12T05:52:12;100769.17;;;11.14;94.60
34103;BME280;20381;54.498;18.206;2022-11-12T05:54:39;100763.06;;;11.15;94.49
34103;BME280;20381;54.498;18.206;2022-11-12T05:57:05;100766.46;;;11.17;94.45
34103;BME280;20381;54.498;18.206;2022-11-12T05:59:32;100772.61;;;11.16;94.65
34103;BME280;20381;54.498;18.206;2022-11-12T06:01:59;100768.19;;;11.18;94.51
34103;BME280;20381;54.498;18.206;2022-11-12T06:04:26;100769.89;;;11.19;94.48
34103;BME280;20381;54.498;18.206;2022-11-12T06:06:52;100768.47;;;11.22;94.52
34103;BME280;20381;54.498;18.206;2022-11-12T06:09:19;100781.05;;;11.24;94.49
34103;BME280;20381;54.498;18.206;2022-11-12T06:11:46;100774.91;;;11.25;94.44
34103;BME280;20381;54.498;18.206;2022-11-12T06:14:12;100774.80;;;11.28;94.43
34103;BME280;20381;54.498;18.206;2022-11-12T06:16:39;100780.84;;;11.30;94.37
34103;BME280;20381;54.498;18.206;2022-11-12T06:19:06;100787.77;;;11.31;94.36
34103;BME280;20381;54.498;18.206;2022-11-12T06:21:33;100789.00;;;11.34;94.35
34103;BME280;20381;54.498;18.206;2022-11-12T06:24:00;100784.62;;;11.35;94.37
34103;BME280;20381;54.498;18.206;2022-11-12T06:26:28;100784.05;;;11.38;94.30
34103;BME280;20381;54.498;18.206;2022-11-12T06:28:55;100787.48;;;11.40;94.26
34103;BME280;20381;54.498;18.206;2022-11-12T06:31:22;100794.41;;;11.41;94.24
34103;BME280;20381;54.498;18.206;2022-11-12T06:33:49;100796.11;;;11.42;94.18
34103;BME280;20381;54.498;18.206;2022-11-12T06:36:18;100805.58;;;11.47;94.18
34103;BME280;20381;54.498;18.206;2022-11-12T06:38:46;100803.77;;;11.49;94.12
34103;BME280;20381;54.498;18.206;2022-11-12T06:41:13;100805.08;;;11.49;93.94
34103;BME280;20381;54.498;18.206;2022-11-12T06:43:40;100810.66;;;11.51;94.04
34103;BME280;20381;54.498;18.206;2022-11-12T06:46:13;100800.59;;;11.52;93.92
34103;BME280;20381;54.498;18.206;2022-11-12T06:48:41;100815.26;;;11.56;93.97
34103;BME280;20381;54.498;18.206;2022-11-12T06:51:19;100804.05;;;11.53;93.99
34103;BME280;20381;54.498;18.206;2022-11-12T06:53:44;100809.38;;;11.63;93.80
34103;BME280;20381;54.498;18.206;2022-11-12T06:56:12;100811.50;;;11.65;93.86
34103;BME280;20381;54.498;18.206;2022-11-12T06:58:39;100804.86;;;11.68;93.75
34103;BME280;20381;54.498;18.206;2022-11-12T07:01:11;100804.86;;;11.68;93.75
34103;BME280;20381;54.498;18.206;2022-11-12T07:03:40;100809.17;;;11.69;93.98
34103;BME280;20381;54.498;18.206;2022-11-12T07:06:09;100812.48;;;11.74;93.91
34103;BME280;20381;54.498;18.206;2022-11-12T07:08:41;100812.48;;;11.74;93.91
34103;BME280;20381;54.498;18.206;2022-11-12T07:11:08;100816.77;;;11.77;93.75
34103;BME280;20381;54.498;18.206;2022-11-12T07:13:35;100826.66;;;11.80;93.81
34103;BME280;20381;54.498;18.206;2022-11-12T07:16:04;100829.66;;;11.81;93.67
34103;BME280;20381;54.498;18.206;2022-11-12T07:18:33;100827.16;;;11.78;93.90
34103;BME280;20381;54.498;18.206;2022-11-12T07:23:35;100844.29;;;11.89;93.67
34103;BME280;20381;54.498;18.206;2022-11-12T07:26:09;100833.30;;;11.77;93.25
34103;BME280;20381;54.498;18.206;2022-11-12T07:28:43;100834.74;;;11.88;93.45
34103;BME280;20381;54.498;18.206;2022-11-12T07:31:12;100852.14;;;11.89;93.23
34103;BME280;20381;54.498;18.206;2022-11-12T07:33:40;100852.14;;;11.89;93.23
34103;BME280;20381;54.498;18.206;2022-11-12T07:36:11;100833.20;;;11.80;93.24
34103;BME280;20381;54.498;18.206;2022-11-12T07:38:41;100877.74;;;11.92;93.12
34103;BME280;20381;54.498;18.206;2022-11-12T07:41:13;100852.03;;;11.92;93.23
34103;BME280;20381;54.498;18.206;2022-11-12T07:43:48;100865.97;;;11.92;93.14
34103;BME280;20381;54.498;18.206;2022-11-12T07:46:20;100869.39;;;11.94;93.03
34103;BME280;20381;54.498;18.206;2022-11-12T07:48:48;100867.45;;;11.88;93.34
34103;BME280;20381;54.498;18.206;2022-11-12T07:51:20;100867.45;;;11.88;93.34
34103;BME280;20381;54.498;18.206;2022-11-12T07:53:49;100863.31;;;11.94;93.34
34103;BME280;20381;54.498;18.206;2022-11-12T07:56:19;100877.19;;;11.82;93.90
34103;BME280;20381;54.498;18.206;2022-11-12T07:58:47;100878.31;;;11.89;93.77
34103;BME280;20381;54.498;18.206;2022-11-12T08:01:33;100867.50;;;11.84;93.67
34103;BME280;20381;54.498;18.206;2022-11-12T08:04:06;100874.76;;;12.03;93.11
34103;BME280;20381;54.498;18.206;2022-11-12T08:06:35;100879.03;;;12.05;92.87
34103;BME280;20381;54.498;18.206;2022-11-12T08:09:04;100874.27;;;12.05;92.82
34103;BME280;20381;54.498;18.206;2022-11-12T08:11:33;100896.62;;;12.02;92.80
34103;BME280;20381;54.498;18.206;2022-11-12T08:14:02;100894.15;;;11.97;92.96
34103;BME280;20381;54.498;18.206;2022-11-12T08:16:31;100895.81;;;12.00;92.84
34103;BME280;20381;54.498;18.206;2022-11-12T08:18:59;100902.47;;;11.97;92.93
34103;BME280;20381;54.498;18.206;2022-11-12T08:21:26;100906.28;;;12.00;93.32
34103;BME280;20381;54.498;18.206;2022-11-12T08:23:53;100906.28;;;12.00;93.32
34103;BME280;20381;54.498;18.206;2022-11-12T08:26:20;100910.48;;;12.04;93.19
34103;BME280;20381;54.498;18.206;2022-11-12T08:28:47;100910.80;;;12.08;93.12
34103;BME280;20381;54.498;18.206;2022-11-12T08:31:16;100905.14;;;12.07;92.94
34103;BME280;20381;54.498;18.206;2022-11-12T08:33:45;100916.04;;;12.08;92.55
34103;BME280;20381;54.498;18.206;2022-11-12T08:36:13;100909.98;;;12.06;92.83
34103;BME280;20381;54.498;18.206;2022-11-12T08:38:42;100912.50;;;12.09;93.14
34103;BME280;20381;54.498;18.206;2022-11-12T08:41:09;100903.76;;;12.10;93.04
34103;BME280;20381;54.498;18.206;2022-11-12T08:43:38;100915.93;;;12.11;93.10
34103;BME280;20381;54.498;18.206;2022-11-12T08:46:06;100915.71;;;12.17;93.19
34103;BME280;20381;54.498;18.206;2022-11-12T08:48:34;100867.48;;;11.99;92.87
34103;BME280;20381;54.498;18.206;2022-11-12T08:51:03;100921.87;;;12.16;93.10
34103;BME280;20381;54.498;18.206;2022-11-12T08:53:30;100923.45;;;12.20;93.10
34103;BME280;20381;54.498;18.206;2022-11-12T08:55:57;100914.60;;;12.24;93.24
34103;BME280;20381;54.498;18.206;2022-11-12T08:58:25;100911.02;;;12.27;92.96
34103;BME280;20381;54.498;18.206;2022-11-12T09:00:52;100911.76;;;12.30;92.72
34103;BME280;20381;54.498;18.206;2022-11-12T09:03:20;100918.70;;;12.31;92.93
34103;BME280;20381;54.498;18.206;2022-11-12T09:05:48;100929.59;;;12.33;92.84
34103;BME280;20381;54.498;18.206;2022-11-12T09:08:18;100928.55;;;12.25;92.63
34103;BME280;20381;54.498;18.206;2022-11-12T09:10:47;100926.73;;;12.27;93.02
34103;BME280;20381;54.498;18.206;2022-11-12T09:13:14;100935.37;;;12.29;93.11
34103;BME280;20381;54.498;18.206;2022-11-12T09:15:42;100911.39;;;12.16;92.98
34103;BME280;20381;54.498;18.206;2022-11-12T09:18:16;100906.27;;;12.13;93.25
34103;BME280;20381;54.498;18.206;2022-11-12T09:20:44;100906.27;;;12.13;93.25
34103;BME280;20381;54.498;18.206;2022-11-12T09:23:13;100934.02;;;12.30;92.96
34103;BME280;20381;54.498;18.206;2022-11-12T09:25:41;100934.02;;;12.30;92.73
34103;BME280;20381;54.498;18.206;2022-11-12T09:28:16;100920.80;;;12.22;92.89
34103;BME280;20381;54.498;18.206;2022-11-12T09:30:48;100922.45;;;12.24;93.16
34103;BME280;20381;54.498;18.206;2022-11-12T09:33:21;100923.23;;;12.26;93.16
34103;BME280;20381;54.498;18.206;2022-11-12T09:35:53;100931.09;;;12.26;92.94
34103;BME280;20381;54.498;18.206;2022-11-12T09:38:20;100926.84;;;12.24;93.00
34103;BME280;20381;54.498;18.206;2022-11-12T09:43:37;100924.05;;;12.28;93.03
34103;BME280;20381;54.498;18.206;2022-11-12T09:48:51;100920.62;;;12.26;92.94
34103;BME280;20381;54.498;18.206;2022-11-12T09:51:29;100920.53;;;12.29;92.99
34103;BME280;20381;54.498;18.206;2022-11-12T09:54:01;100926.66;;;12.28;92.85
34103;BME280;20381;54.498;18.206;2022-11-12T09:56:34;100933.67;;;12.28;92.99
34103;BME280;20381;54.498;18.206;2022-11-12T09:58:58;100938.87;;;12.29;92.74
34103;BME280;20381;54.498;18.206;2022-11-12T10:10:02;100913.09;;;12.17;92.97
34103;BME280;20381;54.498;18.206;2022-11-12T10:12:53;100937.98;;;12.29;92.99
34103;BME280;20381;54.498;18.206;2022-11-12T10:15:50;100934.48;;;12.30;93.02
34103;BME280;20381;54.498;18.206;2022-11-12T10:22:03;100939.64;;;12.31;93.15
34103;BME280;20381;54.498;18.206;2022-11-12T10:24:35;100946.62;;;12.33;93.11
34103;BME280;20381;54.498;18.206;2022-11-12T10:27:17;100940.06;;;12.33;93.07
34103;BME280;20381;54.498;18.206;2022-11-12T10:30:02;100948.31;;;12.34;93.19
34103;BME280;20381;54.498;18.206;2022-11-12T10:32:40;100942.92;;;12.38;93.15
34103;BME280;20381;54.498;18.206;2022-11-12T10:35:29;100934.15;;;12.39;93.26
34103;BME280;20381;54.498;18.206;2022-11-12T10:37:58;100938.42;;;12.42;93.14
34103;BME280;20381;54.498;18.206;2022-11-12T10:40:33;100939.38;;;12.39;93.18
34103;BME280;20381;54.498;18.206;2022-11-12T10:43:21;100944.66;;;12.38;93.19
34103;BME280;20381;54.498;18.206;2022-11-12T10:45:49;100955.32;;;12.33;93.25
34103;BME280;20381;54.498;18.206;2022-11-12T10:48:30;100943.19;;;12.30;93.31
34103;BME280;20381;54.498;18.206;2022-11-12T10:50:59;100954.66;;;12.26;93.37
34103;BME280;20381;54.498;18.206;2022-11-12T10:53:32;100959.89;;;12.26;93.33
34103;BME280;20381;54.498;18.206;2022-11-12T10:56:04;100962.48;;;12.28;93.47
34103;BME280;20381;54.498;18.206;2022-11-12T10:58:33;100966.86;;;12.27;93.30
34103;BME280;20381;54.498;18.206;2022-11-12T11:01:08;100958.27;;;12.24;93.46
34103;BME280;20381;54.498;18.206;2022-11-12T11:03:53;100954.17;;;12.15;93.66
34103;BME280;20381;54.498;18.206;2022-11-12T11:06:23;100952.26;;;12.20;93.50
34103;BME280;20381;54.498;18.206;2022-11-12T11:08:53;100953.56;;;12.20;93.53
34103;BME280;20381;54.498;18.206;2022-11-12T11:11:25;100956.12;;;12.10;94.02
34103;BME280;20381;54.498;18.206;2022-11-12T11:14:31;100955.41;;;12.05;94.09
34103;BME280;20381;54.498;18.206;2022-11-12T11:16:52;100957.60;;;12.17;93.73
34103;BME280;20381;54.498;18.206;2022-11-12T11:19:29;100957.56;;;12.19;93.51
34103;BME280;20381;54.498;18.206;2022-11-12T11:23:01;100956.69;;;12.18;93.55
34103;BME280;20381;54.498;18.206;2022-11-12T11:24:57;100957.14;;;12.18;93.66
34103;BME280;20381;54.498;18.206;2022-11-12T11:27:34;100956.69;;;12.18;93.64
34103;BME280;20381;54.498;18.206;2022-11-12T11:30:19;100961.92;;;12.18;93.73
34103;BME280;20381;54.498;18.206;2022-11-12T11:38:57;100945.49;;;12.26;93.96
34103;BME280;20381;54.498;18.206;2022-11-12T11:44:42;100947.61;;;12.28;94.10
34103;BME280;20381;54.498;18.206;2022-11-12T11:47:25;100938.45;;;12.28;94.11
34103;BME280;20381;54.498;18.206;2022-11-12T11:52:46;100939.53;;;12.35;94.27
34103;BME280;20381;54.498;18.206;2022-11-12T11:55:36;100946.32;;;12.40;94.39
34103;BME280;20381;54.498;18.206;2022-11-12T12:07:12;100965.31;;;12.47;94.49
34103;BME280;20381;54.498;18.206;2022-11-12T12:26:29;100951.52;;;12.42;94.32
34103;BME280;20381;54.498;18.206;2022-11-12T12:29:15;100958.53;;;12.41;94.46
34103;BME280;20381;54.498;18.206;2022-11-12T12:32:36;100961.15;;;12.41;94.54
34103;BME280;20381;54.498;18.206;2022-11-12T12:34:37;100963.70;;;12.43;94.50
34103;BME280;20381;54.498;18.206;2022-11-12T12:40:18;100957.68;;;12.41;94.53
34103;BME280;20381;54.498;18.206;2022-11-12T12:42:56;100963.00;;;12.38;94.52
34103;BME280;20381;54.498;18.206;2022-11-12T12:45:37;100977.02;;;12.37;94.53
34103;BME280;20381;54.498;18.206;2022-11-12T12:48:30;100971.99;;;12.30;94.72
34103;BME280;20381;54.498;18.206;2022-11-12T12:51:01;100976.24;;;12.21;94.64
34103;BME280;20381;54.498;18.206;2022-11-12T12:53:31;100968.08;;;12.17;94.98
34103;BME280;20381;54.498;18.206;2022-11-12T12:56:02;100983.89;;;12.14;95.01
34103;BME280;20381;54.498;18.206;2022-11-12T12:58:42;100983.89;;;12.14;95.01
34103;BME280;20381;54.498;18.206;2022-11-12T13:04:04;100988.67;;;12.15;95.01
34103;BME280;20381;54.498;18.206;2022-11-12T13:11:48;100995.56;;;12.04;95.10
34103;BME280;20381;54.498;18.206;2022-11-12T13:32:54;100992.27;;;11.99;95.57
34103;BME280;20381;54.498;18.206;2022-11-12T13:40:54;101003.42;;;12.04;95.93
34103;BME280;20381;54.498;18.206;2022-11-12T13:43:38;101005.25;;;12.02;96.22
34103;BME280;20381;54.498;18.206;2022-11-12T13:53:47;101004.48;;;11.98;96.76
34103;BME280;20381;54.498;18.206;2022-11-12T13:56:25;100994.07;;;11.97;96.51
34103;BME280;20381;54.498;18.206;2022-11-12T13:58:54;101002.73;;;11.99;96.36
34103;BME280;20381;54.498;18.206;2022-11-12T14:01:23;101002.73;;;11.99;96.36
34103;BME280;20381;54.498;18.206;2022-11-12T14:03:51;101000.02;;;12.02;96.53
34103;BME280;20381;54.498;18.206;2022-11-12T14:06:29;100996.94;;;12.02;96.67
34103;BME280;20381;54.498;18.206;2022-11-12T14:15:00;100992.97;;;11.91;96.92
34103;BME280;20381;54.498;18.206;2022-11-12T14:20:37;100997.29;;;11.92;97.22
34103;BME280;20381;54.498;18.206;2022-11-12T14:23:16;100955.29;;;11.68;97.61
34103;BME280;20381;54.498;18.206;2022-11-12T14:25:53;101009.27;;;11.85;97.49
34103;BME280;20381;54.498;18.206;2022-11-12T14:28:31;100999.75;;;11.81;97.95
34103;BME280;20381;54.498;18.206;2022-11-12T14:31:00;100987.59;;;11.80;97.57
34103;BME280;20381;54.498;18.206;2022-11-12T14:33:29;100987.59;;;11.80;97.57
34103;BME280;20381;54.498;18.206;2022-11-12T14:36:05;100982.66;;;11.71;98.12
34103;BME280;20381;54.498;18.206;2022-11-12T14:38:41;100982.66;;;11.71;98.12
34103;BME280;20381;54.498;18.206;2022-11-12T14:41:27;101004.98;;;11.81;97.92
34103;BME280;20381;54.498;18.206;2022-11-12T14:44:00;101012.84;;;11.81;98.03
34103;BME280;20381;54.498;18.206;2022-11-12T14:49:02;101014.77;;;11.76;98.76
34103;BME280;20381;54.498;18.206;2022-11-12T14:51:36;100998.55;;;11.78;98.69
34103;BME280;20381;54.498;18.206;2022-11-12T14:54:12;101010.42;;;11.75;99.39
34103;BME280;20381;54.498;18.206;2022-11-12T14:56:42;101010.42;;;11.75;99.39